sensor_id;sensor_type;location;lat;lon;timestamp;P1;durP1;ratioP1;P2;durP2;ratioP2
52940;SDS011;62001;53.366;6.636;2023-05-10T00:01:08;19.52;;;16.40;;
52940;SDS011;62001;53.366;6.636;2023-05-10T00:03:34;21.50;;;16.50;;
52940;SDS011;62001;53.366;6.636;2023-05-10T00:05:59;19.17;;;16.27;;
52940;SDS011;62001;53.366;6.636;2023-05-10T00:08:25;19.85;;;16.80;;
52940;SDS011;62001;53.366;6.636;2023-05-10T00:10:51;19.40;;;16.85;;
52940;SDS011;62001;53.366;6.636;2023-05-10T00:13:18;18.25;;;15.40;;
52940;SDS011;62001;53.366;6.636;2023-05-10T00:15:43;16.48;;;14.18;;
52940;SDS011;62001;53.366;6.636;2023-05-10T00:18:09;15.68;;;12.93;;
52940;SDS011;62001;53.366;6.636;2023-05-10T00:20:35;16.05;;;13.68;;
52940;SDS011;62001;53.366;6.636;2023-05-10T00:23:01;16.38;;;13.68;;
52940;SDS011;62001;53.366;6.636;2023-05-10T00:25:27;15.18;;;13.00;;
52940;SDS011;62001;53.366;6.636;2023-05-10T00:27:53;17.58;;;13.77;;
52940;SDS011;62001;53.366;6.636;2023-05-10T00:30:20;18.08;;;13.93;;
52940;SDS011;62001;53.366;6.636;2023-05-10T00:32:46;15.40;;;13.18;;
52940;SDS011;62001;53.366;6.636;2023-05-10T00:35:13;16.45;;;13.48;;
52940;SDS011;62001;53.366;6.636;2023-05-10T00:37:39;19.23;;;13.85;;
52940;SDS011;62001;53.366;6.636;2023-05-10T00:40:05;16.52;;;13.52;;
52940;SDS011;62001;53.366;6.636;2023-05-10T00:42:32;17.75;;;13.95;;
52940;SDS011;62001;53.366;6.636;2023-05-10T00:44:58;17.05;;;14.32;;
52940;SDS011;62001;53.366;6.636;2023-05-10T00:47:24;17.27;;;13.45;;
52940;SDS011;62001;53.366;6.636;2023-05-10T00:49:50;17.33;;;13.68;;
52940;SDS011;62001;53.366;6.636;2023-05-10T00:52:16;18.38;;;13.73;;
52940;SDS011;62001;53.366;6.636;2023-05-10T00:54:42;17.02;;;13.32;;
52940;SDS011;62001;53.366;6.636;2023-05-10T00:57:07;18.38;;;14.65;;
52940;SDS011;62001;53.366;6.636;2023-05-10T00:59:34;17.75;;;14.13;;
52940;SDS011;62001;53.366;6.636;2023-05-10T01:02:00;18.50;;;13.95;;
52940;SDS011;62001;53.366;6.636;2023-05-10T01:04:26;21.08;;;15.35;;
52940;SDS011;62001;53.366;6.636;2023-05-10T01:06:53;19.00;;;14.18;;
52940;SDS011;62001;53.366;6.636;2023-05-10T01:09:19;20.67;;;15.05;;
52940;SDS011;62001;53.366;6.636;2023-05-10T01:11:46;19.40;;;13.88;;
52940;SDS011;62001;53.366;6.636;2023-05-10T01:14:13;19.42;;;14.68;;
52940;SDS011;62001;53.366;6.636;2023-05-10T01:16:42;17.42;;;14.43;;
52940;SDS011;62001;53.366;6.636;2023-05-10T01:19:22;19.50;;;14.82;;
52940;SDS011;62001;53.366;6.636;2023-05-10T01:22:06;17.87;;;12.97;;
52940;SDS011;62001;53.366;6.636;2023-05-10T01:28:21;15.07;;;12.90;;
52940;SDS011;62001;53.366;6.636;2023-05-10T01:31:27;18.02;;;13.45;;
52940;SDS011;62001;53.366;6.636;2023-05-10T01:33:59;15.50;;;12.35;;
52940;SDS011;62001;53.366;6.636;2023-05-10T01:36:45;14.93;;;11.85;;
52940;SDS011;62001;53.366;6.636;2023-05-10T01:42:29;13.52;;;11.38;;
52940;SDS011;62001;53.366;6.636;2023-05-10T01:45:14;14.38;;;10.90;;
52940;SDS011;62001;53.366;6.636;2023-05-10T01:48:08;13.82;;;10.73;;
52940;SDS011;62001;53.366;6.636;2023-05-10T01:50:36;12.57;;;10.55;;
52940;SDS011;62001;53.366;6.636;2023-05-10T01:53:06;11.45;;;10.25;;
52940;SDS011;62001;53.366;6.636;2023-05-10T01:55:46;12.93;;;11.07;;
52940;SDS011;62001;53.366;6.636;2023-05-10T01:58:15;13.18;;;10.40;;
52940;SDS011;62001;53.366;6.636;2023-05-10T02:00:46;12.70;;;10.82;;
52940;SDS011;62001;53.366;6.636;2023-05-10T02:03:14;12.10;;;10.40;;
52940;SDS011;62001;53.366;6.636;2023-05-10T02:05:43;13.80;;;11.68;;
52940;SDS011;62001;53.366;6.636;2023-05-10T02:08:11;15.95;;;11.68;;
52940;SDS011;62001;53.366;6.636;2023-05-10T02:10:41;13.70;;;11.88;;
52940;SDS011;62001;53.366;6.636;2023-05-10T02:13:08;13.13;;;11.57;;
52940;SDS011;62001;53.366;6.636;2023-05-10T02:15:35;14.85;;;11.52;;
52940;SDS011;62001;53.366;6.636;2023-05-10T02:18:03;18.48;;;12.82;;
52940;SDS011;62001;53.366;6.636;2023-05-10T02:20:31;16.65;;;12.77;;
52940;SDS011;62001;53.366;6.636;2023-05-10T02:22:57;16.17;;;13.45;;
52940;SDS011;62001;53.366;6.636;2023-05-10T02:25:24;15.98;;;12.68;;
52940;SDS011;62001;53.366;6.636;2023-05-10T02:27:51;19.80;;;13.77;;
52940;SDS011;62001;53.366;6.636;2023-05-10T02:30:22;17.48;;;14.02;;
52940;SDS011;62001;53.366;6.636;2023-05-10T02:32:49;18.40;;;14.20;;
52940;SDS011;62001;53.366;6.636;2023-05-10T02:35:16;17.30;;;14.55;;
52940;SDS011;62001;53.366;6.636;2023-05-10T02:37:43;16.10;;;12.98;;
52940;SDS011;62001;53.366;6.636;2023-05-10T02:40:11;16.80;;;13.13;;
52940;SDS011;62001;53.366;6.636;2023-05-10T02:42:39;13.63;;;12.10;;
52940;SDS011;62001;53.366;6.636;2023-05-10T02:45:08;14.32;;;12.27;;
52940;SDS011;62001;53.366;6.636;2023-05-10T02:47:40;12.63;;;11.32;;
52940;SDS011;62001;53.366;6.636;2023-05-10T02:50:06;14.63;;;11.60;;
52940;SDS011;62001;53.366;6.636;2023-05-10T02:52:38;13.30;;;12.00;;
52940;SDS011;62001;53.366;6.636;2023-05-10T02:55:05;15.88;;;12.93;;
52940;SDS011;62001;53.366;6.636;2023-05-10T02:57:35;10.00;;;8.98;;
52940;SDS011;62001;53.366;6.636;2023-05-10T03:00:07;14.20;;;12.55;;
52940;SDS011;62001;53.366;6.636;2023-05-10T03:02:33;12.25;;;11.05;;
52940;SDS011;62001;53.366;6.636;2023-05-10T03:04:59;13.32;;;11.38;;
52940;SDS011;62001;53.366;6.636;2023-05-10T03:07:25;12.98;;;11.63;;
52940;SDS011;62001;53.366;6.636;2023-05-10T03:09:51;13.05;;;11.65;;
52940;SDS011;62001;53.366;6.636;2023-05-10T03:18:21;13.18;;;11.32;;
52940;SDS011;62001;53.366;6.636;2023-05-10T03:20:48;14.55;;;12.35;;
52940;SDS011;62001;53.366;6.636;2023-05-10T03:25:47;17.13;;;13.10;;
52940;SDS011;62001;53.366;6.636;2023-05-10T03:28:16;16.33;;;12.88;;
52940;SDS011;62001;53.366;6.636;2023-05-10T03:30:43;20.50;;;13.88;;
52940;SDS011;62001;53.366;6.636;2023-05-10T03:33:10;18.33;;;13.10;;
52940;SDS011;62001;53.366;6.636;2023-05-10T03:35:36;18.20;;;13.70;;
52940;SDS011;62001;53.366;6.636;2023-05-10T03:38:01;18.80;;;14.30;;
52940;SDS011;62001;53.366;6.636;2023-05-10T03:40:27;18.17;;;14.05;;
52940;SDS011;62001;53.366;6.636;2023-05-10T03:42:56;20.98;;;14.13;;
52940;SDS011;62001;53.366;6.636;2023-05-10T03:45:22;21.60;;;14.25;;
52940;SDS011;62001;53.366;6.636;2023-05-10T03:47:48;22.10;;;15.02;;
52940;SDS011;62001;53.366;6.636;2023-05-10T03:50:14;28.48;;;16.42;;
52940;SDS011;62001;53.366;6.636;2023-05-10T03:52:40;23.17;;;15.70;;
52940;SDS011;62001;53.366;6.636;2023-05-10T03:55:06;21.17;;;16.05;;
52940;SDS011;62001;53.366;6.636;2023-05-10T03:57:32;27.02;;;16.35;;
52940;SDS011;62001;53.366;6.636;2023-05-10T03:59:58;24.55;;;15.95;;
52940;SDS011;62001;53.366;6.636;2023-05-10T04:02:24;26.17;;;15.75;;
52940;SDS011;62001;53.366;6.636;2023-05-10T04:04:50;24.65;;;16.10;;
52940;SDS011;62001;53.366;6.636;2023-05-10T04:07:16;22.17;;;15.45;;
52940;SDS011;62001;53.366;6.636;2023-05-10T04:09:43;23.52;;;15.63;;
52940;SDS011;62001;53.366;6.636;2023-05-10T04:12:09;24.45;;;15.57;;
52940;SDS011;62001;53.366;6.636;2023-05-10T04:14:34;19.88;;;14.35;;
52940;SDS011;62001;53.366;6.636;2023-05-10T04:17:00;20.73;;;14.43;;
52940;SDS011;62001;53.366;6.636;2023-05-10T04:19:32;26.85;;;15.35;;
52940;SDS011;62001;53.366;6.636;2023-05-10T04:21:58;21.50;;;14.60;;
52940;SDS011;62001;53.366;6.636;2023-05-10T04:24:24;21.70;;;15.38;;
52940;SDS011;62001;53.366;6.636;2023-05-10T04:26:50;18.45;;;14.40;;
52940;SDS011;62001;53.366;6.636;2023-05-10T04:29:16;16.55;;;13.82;;
52940;SDS011;62001;53.366;6.636;2023-05-10T04:31:42;17.98;;;14.32;;
52940;SDS011;62001;53.366;6.636;2023-05-10T04:34:08;20.23;;;14.40;;
52940;SDS011;62001;53.366;6.636;2023-05-10T04:36:34;15.88;;;13.18;;
52940;SDS011;62001;53.366;6.636;2023-05-10T04:39:01;18.52;;;12.93;;
52940;SDS011;62001;53.366;6.636;2023-05-10T04:41:30;17.00;;;11.65;;
52940;SDS011;62001;53.366;6.636;2023-05-10T04:43:56;19.33;;;12.02;;
52940;SDS011;62001;53.366;6.636;2023-05-10T04:46:22;16.00;;;11.95;;
52940;SDS011;62001;53.366;6.636;2023-05-10T04:48:47;17.15;;;12.07;;
52940;SDS011;62001;53.366;6.636;2023-05-10T04:51:13;17.55;;;12.40;;
52940;SDS011;62001;53.366;6.636;2023-05-10T04:53:39;18.17;;;12.43;;
52940;SDS011;62001;53.366;6.636;2023-05-10T04:56:05;21.60;;;13.25;;
52940;SDS011;62001;53.366;6.636;2023-05-10T04:58:31;13.90;;;11.52;;
52940;SDS011;62001;53.366;6.636;2023-05-10T05:01:04;16.38;;;11.20;;
52940;SDS011;62001;53.366;6.636;2023-05-10T05:03:34;15.13;;;11.43;;
52940;SDS011;62001;53.366;6.636;2023-05-10T05:06:00;16.38;;;11.13;;
52940;SDS011;62001;53.366;6.636;2023-05-10T05:08:26;13.40;;;10.15;;
52940;SDS011;62001;53.366;6.636;2023-05-10T05:10:52;17.67;;;11.68;;
52940;SDS011;62001;53.366;6.636;2023-05-10T05:13:17;15.43;;;10.50;;
52940;SDS011;62001;53.366;6.636;2023-05-10T05:15:44;12.68;;;9.90;;
52940;SDS011;62001;53.366;6.636;2023-05-10T05:18:09;12.15;;;9.68;;
52940;SDS011;62001;53.366;6.636;2023-05-10T05:20:35;10.98;;;8.60;;
52940;SDS011;62001;53.366;6.636;2023-05-10T05:23:01;9.40;;;7.82;;
52940;SDS011;62001;53.366;6.636;2023-05-10T05:25:27;8.45;;;7.40;;
52940;SDS011;62001;53.366;6.636;2023-05-10T05:27:53;7.28;;;6.57;;
52940;SDS011;62001;53.366;6.636;2023-05-10T05:30:19;6.88;;;6.15;;
52940;SDS011;62001;53.366;6.636;2023-05-10T05:32:45;3.42;;;3.13;;
52940;SDS011;62001;53.366;6.636;2023-05-10T05:35:12;3.55;;;3.15;;
52940;SDS011;62001;53.366;6.636;2023-05-10T05:37:37;3.28;;;2.30;;
52940;SDS011;62001;53.366;6.636;2023-05-10T05:40:04;1.40;;;1.30;;
52940;SDS011;62001;53.366;6.636;2023-05-10T05:42:30;1.27;;;0.90;;
52940;SDS011;62001;53.366;6.636;2023-05-10T05:44:57;0.70;;;0.60;;
52940;SDS011;62001;53.366;6.636;2023-05-10T05:47:23;0.70;;;0.70;;
52940;SDS011;62001;53.366;6.636;2023-05-10T05:49:48;0.90;;;0.90;;
52940;SDS011;62001;53.366;6.636;2023-05-10T05:52:14;1.65;;;0.50;;
52940;SDS011;62001;53.366;6.636;2023-05-10T05:54:40;0.50;;;0.50;;
52940;SDS011;62001;53.366;6.636;2023-05-10T05:57:06;1.00;;;1.00;;
52940;SDS011;62001;53.366;6.636;2023-05-10T05:59:32;1.38;;;0.57;;
52940;SDS011;62001;53.366;6.636;2023-05-10T06:01:58;0.55;;;0.55;;
52940;SDS011;62001;53.366;6.636;2023-05-10T06:04:24;0.60;;;0.60;;
52940;SDS011;62001;53.366;6.636;2023-05-10T06:06:50;0.77;;;0.77;;
52940;SDS011;62001;53.366;6.636;2023-05-10T06:09:16;1.38;;;1.30;;
52940;SDS011;62001;53.366;6.636;2023-05-10T06:11:42;1.10;;;1.10;;
52940;SDS011;62001;53.366;6.636;2023-05-10T06:14:07;1.05;;;1.05;;
52940;SDS011;62001;53.366;6.636;2023-05-10T06:16:34;1.25;;;1.10;;
52940;SDS011;62001;53.366;6.636;2023-05-10T06:19:00;1.77;;;1.67;;
52940;SDS011;62001;53.366;6.636;2023-05-10T06:21:26;2.03;;;1.92;;
52940;SDS011;62001;53.366;6.636;2023-05-10T06:23:52;2.88;;;2.60;;
52940;SDS011;62001;53.366;6.636;2023-05-10T06:26:17;3.67;;;3.38;;
52940;SDS011;62001;53.366;6.636;2023-05-10T06:28:43;4.88;;;4.47;;
52940;SDS011;62001;53.366;6.636;2023-05-10T06:31:09;13.60;;;9.38;;
52940;SDS011;62001;53.366;6.636;2023-05-10T06:33:36;24.90;;;12.63;;
52940;SDS011;62001;53.366;6.636;2023-05-10T06:36:02;28.02;;;12.80;;
52940;SDS011;62001;53.366;6.636;2023-05-10T06:38:29;30.42;;;14.07;;
52940;SDS011;62001;53.366;6.636;2023-05-10T06:40:54;19.35;;;11.55;;
52940;SDS011;62001;53.366;6.636;2023-05-10T06:43:20;10.80;;;7.97;;
52940;SDS011;62001;53.366;6.636;2023-05-10T06:45:47;8.00;;;7.03;;
52940;SDS011;62001;53.366;6.636;2023-05-10T06:48:13;7.47;;;6.65;;
52940;SDS011;62001;53.366;6.636;2023-05-10T06:50:39;8.00;;;6.55;;
52940;SDS011;62001;53.366;6.636;2023-05-10T06:53:04;7.40;;;6.50;;
52940;SDS011;62001;53.366;6.636;2023-05-10T06:55:30;8.50;;;6.93;;
52940;SDS011;62001;53.366;6.636;2023-05-10T06:57:56;8.27;;;7.47;;
52940;SDS011;62001;53.366;6.636;2023-05-10T07:00:22;8.35;;;7.53;;
52940;SDS011;62001;53.366;6.636;2023-05-10T07:02:48;9.77;;;8.60;;
52940;SDS011;62001;53.366;6.636;2023-05-10T07:05:14;12.10;;;10.90;;
52940;SDS011;62001;53.366;6.636;2023-05-10T07:07:40;12.35;;;11.10;;
52940;SDS011;62001;53.366;6.636;2023-05-10T07:10:06;13.32;;;11.93;;
52940;SDS011;62001;53.366;6.636;2023-05-10T07:12:33;11.45;;;10.45;;
52940;SDS011;62001;53.366;6.636;2023-05-10T07:14:58;11.73;;;10.48;;
52940;SDS011;62001;53.366;6.636;2023-05-10T07:17:24;10.15;;;9.18;;
52940;SDS011;62001;53.366;6.636;2023-05-10T07:19:50;8.98;;;8.07;;
52940;SDS011;62001;53.366;6.636;2023-05-10T07:22:16;8.23;;;7.53;;
52940;SDS011;62001;53.366;6.636;2023-05-10T07:24:42;7.90;;;6.35;;
52940;SDS011;62001;53.366;6.636;2023-05-10T07:27:08;8.30;;;7.50;;
52940;SDS011;62001;53.366;6.636;2023-05-10T07:29:34;8.07;;;7.28;;
52940;SDS011;62001;53.366;6.636;2023-05-10T07:32:01;8.55;;;7.60;;
52940;SDS011;62001;53.366;6.636;2023-05-10T07:34:27;7.47;;;6.78;;
52940;SDS011;62001;53.366;6.636;2023-05-10T07:36:53;9.43;;;8.45;;
52940;SDS011;62001;53.366;6.636;2023-05-10T07:39:19;9.68;;;8.68;;
52940;SDS011;62001;53.366;6.636;2023-05-10T07:41:47;8.70;;;7.90;;
52940;SDS011;62001;53.366;6.636;2023-05-10T07:44:13;9.50;;;7.35;;
52940;SDS011;62001;53.366;6.636;2023-05-10T07:46:39;6.40;;;5.80;;
52940;SDS011;62001;53.366;6.636;2023-05-10T07:49:05;4.45;;;4.05;;
52940;SDS011;62001;53.366;6.636;2023-05-10T07:51:31;5.20;;;4.70;;
52940;SDS011;62001;53.366;6.636;2023-05-10T07:53:57;4.80;;;4.40;;
52940;SDS011;62001;53.366;6.636;2023-05-10T07:56:23;4.55;;;4.15;;
52940;SDS011;62001;53.366;6.636;2023-05-10T07:58:58;4.50;;;3.72;;
52940;SDS011;62001;53.366;6.636;2023-05-10T08:01:24;4.57;;;4.20;;
52940;SDS011;62001;53.366;6.636;2023-05-10T08:03:51;4.75;;;4.30;;
52940;SDS011;62001;53.366;6.636;2023-05-10T08:06:18;3.90;;;3.60;;
52940;SDS011;62001;53.366;6.636;2023-05-10T08:08:45;3.17;;;2.97;;
52940;SDS011;62001;53.366;6.636;2023-05-10T08:11:14;3.35;;;3.05;;
52940;SDS011;62001;53.366;6.636;2023-05-10T08:13:41;3.08;;;2.78;;
52940;SDS011;62001;53.366;6.636;2023-05-10T08:16:07;3.20;;;2.92;;
52940;SDS011;62001;53.366;6.636;2023-05-10T08:18:33;4.30;;;2.60;;
52940;SDS011;62001;53.366;6.636;2023-05-10T08:20:58;2.47;;;2.28;;
52940;SDS011;62001;53.366;6.636;2023-05-10T08:23:24;2.50;;;2.30;;
52940;SDS011;62001;53.366;6.636;2023-05-10T08:25:51;2.22;;;2.03;;
52940;SDS011;62001;53.366;6.636;2023-05-10T08:28:16;2.40;;;2.20;;
52940;SDS011;62001;53.366;6.636;2023-05-10T08:30:42;3.10;;;2.90;;
52940;SDS011;62001;53.366;6.636;2023-05-10T08:33:08;4.05;;;3.75;;
52940;SDS011;62001;53.366;6.636;2023-05-10T08:35:34;3.25;;;3.05;;
52940;SDS011;62001;53.366;6.636;2023-05-10T08:38:00;2.88;;;2.65;;
52940;SDS011;62001;53.366;6.636;2023-05-10T08:40:26;3.60;;;3.15;;
52940;SDS011;62001;53.366;6.636;2023-05-10T08:42:57;2.60;;;2.38;;
52940;SDS011;62001;53.366;6.636;2023-05-10T08:45:27;3.00;;;1.83;;
52940;SDS011;62001;53.366;6.636;2023-05-10T08:47:59;2.05;;;1.85;;
52940;SDS011;62001;53.366;6.636;2023-05-10T08:50:26;2.30;;;2.10;;
52940;SDS011;62001;53.366;6.636;2023-05-10T08:52:52;2.03;;;1.83;;
52940;SDS011;62001;53.366;6.636;2023-05-10T08:55:23;1.80;;;1.70;;
52940;SDS011;62001;53.366;6.636;2023-05-10T08:57:49;1.48;;;1.38;;
52940;SDS011;62001;53.366;6.636;2023-05-10T09:00:15;2.70;;;1.60;;
52940;SDS011;62001;53.366;6.636;2023-05-10T09:02:43;2.17;;;1.60;;
52940;SDS011;62001;53.366;6.636;2023-05-10T09:05:11;1.90;;;1.45;;
52940;SDS011;62001;53.366;6.636;2023-05-10T09:07:37;2.03;;;1.38;;
52940;SDS011;62001;53.366;6.636;2023-05-10T09:10:04;1.95;;;1.50;;
52940;SDS011;62001;53.366;6.636;2023-05-10T09:12:30;2.28;;;1.52;;
52940;SDS011;62001;53.366;6.636;2023-05-10T09:14:56;1.83;;;1.70;;
52940;SDS011;62001;53.366;6.636;2023-05-10T09:17:24;4.18;;;2.45;;
52940;SDS011;62001;53.366;6.636;2023-05-10T09:19:58;3.60;;;2.40;;
52940;SDS011;62001;53.366;6.636;2023-05-10T09:22:31;3.35;;;2.15;;
52940;SDS011;62001;53.366;6.636;2023-05-10T09:25:05;2.92;;;2.20;;
52940;SDS011;62001;53.366;6.636;2023-05-10T09:27:31;4.03;;;2.10;;
52940;SDS011;62001;53.366;6.636;2023-05-10T09:29:58;3.85;;;2.47;;
52940;SDS011;62001;53.366;6.636;2023-05-10T09:32:39;3.85;;;1.70;;
52940;SDS011;62001;53.366;6.636;2023-05-10T09:35:07;3.58;;;2.28;;
52940;SDS011;62001;53.366;6.636;2023-05-10T09:37:33;1.83;;;1.70;;
52940;SDS011;62001;53.366;6.636;2023-05-10T09:39:58;2.83;;;2.08;;
52940;SDS011;62001;53.366;6.636;2023-05-10T09:42:24;4.03;;;1.70;;
52940;SDS011;62001;53.366;6.636;2023-05-10T09:44:50;2.35;;;1.55;;
52940;SDS011;62001;53.366;6.636;2023-05-10T09:47:19;3.28;;;1.80;;
52940;SDS011;62001;53.366;6.636;2023-05-10T09:49:51;5.00;;;2.40;;
52940;SDS011;62001;53.366;6.636;2023-05-10T09:52:18;4.07;;;2.67;;
52940;SDS011;62001;53.366;6.636;2023-05-10T09:54:52;5.07;;;3.90;;
52940;SDS011;62001;53.366;6.636;2023-05-10T09:57:21;3.30;;;2.85;;
52940;SDS011;62001;53.366;6.636;2023-05-10T09:59:48;3.35;;;2.78;;
52940;SDS011;62001;53.366;6.636;2023-05-10T10:02:16;7.35;;;6.10;;
52940;SDS011;62001;53.366;6.636;2023-05-10T10:04:42;3.30;;;3.08;;
52940;SDS011;62001;53.366;6.636;2023-05-10T10:07:08;2.58;;;2.38;;
52940;SDS011;62001;53.366;6.636;2023-05-10T10:09:34;2.60;;;2.22;;
52940;SDS011;62001;53.366;6.636;2023-05-10T10:12:01;2.85;;;2.40;;
52940;SDS011;62001;53.366;6.636;2023-05-10T10:14:28;2.60;;;2.40;;
52940;SDS011;62001;53.366;6.636;2023-05-10T10:16:54;2.60;;;2.40;;
52940;SDS011;62001;53.366;6.636;2023-05-10T10:19:20;2.78;;;2.58;;
52940;SDS011;62001;53.366;6.636;2023-05-10T10:21:50;2.83;;;2.63;;
52940;SDS011;62001;53.366;6.636;2023-05-10T10:24:16;2.60;;;2.40;;
52940;SDS011;62001;53.366;6.636;2023-05-10T10:26:42;3.03;;;2.83;;
52940;SDS011;62001;53.366;6.636;2023-05-10T10:32:25;3.33;;;3.05;;
52940;SDS011;62001;53.366;6.636;2023-05-10T10:35:11;2.55;;;2.38;;
52940;SDS011;62001;53.366;6.636;2023-05-10T10:37:42;2.80;;;2.60;;
52940;SDS011;62001;53.366;6.636;2023-05-10T10:40:26;3.20;;;2.90;;
52940;SDS011;62001;53.366;6.636;2023-05-10T10:42:53;3.20;;;2.90;;
52940;SDS011;62001;53.366;6.636;2023-05-10T10:45:20;3.03;;;2.78;;
52940;SDS011;62001;53.366;6.636;2023-05-10T10:47:46;2.90;;;2.70;;
52940;SDS011;62001;53.366;6.636;2023-05-10T10:50:12;3.22;;;2.92;;
52940;SDS011;62001;53.366;6.636;2023-05-10T10:52:39;3.40;;;3.10;;
52940;SDS011;62001;53.366;6.636;2023-05-10T10:55:06;3.38;;;2.90;;
52940;SDS011;62001;53.366;6.636;2023-05-10T11:00:19;5.13;;;4.35;;
52940;SDS011;62001;53.366;6.636;2023-05-10T11:02:47;5.43;;;4.93;;
52940;SDS011;62001;53.366;6.636;2023-05-10T11:08:10;6.15;;;4.35;;
52940;SDS011;62001;53.366;6.636;2023-05-10T11:10:48;4.22;;;3.83;;
52940;SDS011;62001;53.366;6.636;2023-05-10T11:13:45;4.65;;;3.15;;
52940;SDS011;62001;53.366;6.636;2023-05-10T11:16:20;4.72;;;3.60;;
52940;SDS011;62001;53.366;6.636;2023-05-10T11:19:01;5.55;;;3.67;;
52940;SDS011;62001;53.366;6.636;2023-05-10T11:21:32;5.43;;;4.40;;
52940;SDS011;62001;53.366;6.636;2023-05-10T11:23:59;6.82;;;4.78;;
52940;SDS011;62001;53.366;6.636;2023-05-10T11:26:30;6.90;;;5.95;;
52940;SDS011;62001;53.366;6.636;2023-05-10T11:28:57;7.10;;;5.93;;
52940;SDS011;62001;53.366;6.636;2023-05-10T11:31:25;10.02;;;6.93;;
52940;SDS011;62001;53.366;6.636;2023-05-10T11:33:58;9.10;;;6.97;;
52940;SDS011;62001;53.366;6.636;2023-05-10T11:36:29;8.32;;;6.88;;
52940;SDS011;62001;53.366;6.636;2023-05-10T11:38:58;7.55;;;6.47;;
52940;SDS011;62001;53.366;6.636;2023-05-10T11:41:25;8.20;;;6.88;;
52940;SDS011;62001;53.366;6.636;2023-05-10T11:43:54;9.13;;;6.60;;
52940;SDS011;62001;53.366;6.636;2023-05-10T11:46:22;10.77;;;8.80;;
52940;SDS011;62001;53.366;6.636;2023-05-10T11:48:50;9.27;;;8.15;;
52940;SDS011;62001;53.366;6.636;2023-05-10T11:51:20;8.70;;;7.80;;
52940;SDS011;62001;53.366;6.636;2023-05-10T11:53:47;10.48;;;7.85;;
52940;SDS011;62001;53.366;6.636;2023-05-10T11:56:14;10.02;;;8.27;;
52940;SDS011;62001;53.366;6.636;2023-05-10T11:58:40;9.38;;;7.82;;
52940;SDS011;62001;53.366;6.636;2023-05-10T12:01:06;11.23;;;9.10;;
52940;SDS011;62001;53.366;6.636;2023-05-10T12:03:33;11.32;;;10.13;;
52940;SDS011;62001;53.366;6.636;2023-05-10T12:05:59;12.10;;;9.57;;
52940;SDS011;62001;53.366;6.636;2023-05-10T12:08:27;12.45;;;9.55;;
52940;SDS011;62001;53.366;6.636;2023-05-10T12:11:04;15.45;;;10.10;;
52940;SDS011;62001;53.366;6.636;2023-05-10T12:13:38;13.10;;;9.57;;
52940;SDS011;62001;53.366;6.636;2023-05-10T12:16:15;13.32;;;10.98;;
52940;SDS011;62001;53.366;6.636;2023-05-10T12:18:42;13.30;;;11.50;;
52940;SDS011;62001;53.366;6.636;2023-05-10T12:21:09;13.77;;;11.68;;
52940;SDS011;62001;53.366;6.636;2023-05-10T12:23:36;13.73;;;11.73;;
52940;SDS011;62001;53.366;6.636;2023-05-10T12:26:08;14.60;;;12.88;;
52940;SDS011;62001;53.366;6.636;2023-05-10T12:28:35;15.75;;;12.48;;
52940;SDS011;62001;53.366;6.636;2023-05-10T12:31:02;15.23;;;13.35;;
52940;SDS011;62001;53.366;6.636;2023-05-10T12:33:35;15.35;;;12.80;;
52940;SDS011;62001;53.366;6.636;2023-05-10T12:36:12;14.43;;;12.25;;
52940;SDS011;62001;53.366;6.636;2023-05-10T12:38:39;14.02;;;12.02;;
52940;SDS011;62001;53.366;6.636;2023-05-10T12:41:14;14.35;;;12.07;;
52940;SDS011;62001;53.366;6.636;2023-05-10T12:43:41;13.27;;;11.90;;
52940;SDS011;62001;53.366;6.636;2023-05-10T12:48:36;11.93;;;10.10;;
52940;SDS011;62001;53.366;6.636;2023-05-10T12:51:03;9.52;;;8.63;;
52940;SDS011;62001;53.366;6.636;2023-05-10T12:53:30;9.82;;;8.82;;
52940;SDS011;62001;53.366;6.636;2023-05-10T12:55:56;8.75;;;7.85;;
52940;SDS011;62001;53.366;6.636;2023-05-10T12:58:22;8.60;;;7.68;;
52940;SDS011;62001;53.366;6.636;2023-05-10T13:00:48;9.93;;;6.93;;
52940;SDS011;62001;53.366;6.636;2023-05-10T13:03:16;8.52;;;7.60;;
52940;SDS011;62001;53.366;6.636;2023-05-10T13:05:42;7.68;;;6.85;;
52940;SDS011;62001;53.366;6.636;2023-05-10T13:08:08;8.38;;;7.50;;
52940;SDS011;62001;53.366;6.636;2023-05-10T13:10:34;8.85;;;7.95;;
52940;SDS011;62001;53.366;6.636;2023-05-10T13:13:00;7.82;;;6.93;;
52940;SDS011;62001;53.366;6.636;2023-05-10T13:15:26;8.55;;;7.65;;
52940;SDS011;62001;53.366;6.636;2023-05-10T13:17:52;8.00;;;7.20;;
52940;SDS011;62001;53.366;6.636;2023-05-10T13:20:18;8.48;;;7.30;;
52940;SDS011;62001;53.366;6.636;2023-05-10T13:22:44;7.32;;;6.60;;
52940;SDS011;62001;53.366;6.636;2023-05-10T13:25:11;7.30;;;6.10;;
52940;SDS011;62001;53.366;6.636;2023-05-10T13:27:39;6.78;;;6.18;;
52940;SDS011;62001;53.366;6.636;2023-05-10T13:30:06;6.15;;;5.28;;
52940;SDS011;62001;53.366;6.636;2023-05-10T13:32:36;6.25;;;4.43;;
52940;SDS011;62001;53.366;6.636;2023-05-10T13:35:02;5.90;;;4.68;;
52940;SDS011;62001;53.366;6.636;2023-05-10T13:37:29;5.18;;;4.13;;
52940;SDS011;62001;53.366;6.636;2023-05-10T13:39:55;5.70;;;3.80;;
52940;SDS011;62001;53.366;6.636;2023-05-10T13:42:21;3.92;;;3.53;;
52940;SDS011;62001;53.366;6.636;2023-05-10T13:44:48;4.32;;;3.92;;
52940;SDS011;62001;53.366;6.636;2023-05-10T13:47:14;5.70;;;4.97;;
52940;SDS011;62001;53.366;6.636;2023-05-10T13:49:40;4.88;;;3.88;;
52940;SDS011;62001;53.366;6.636;2023-05-10T13:52:06;5.38;;;4.40;;
52940;SDS011;62001;53.366;6.636;2023-05-10T13:54:33;5.10;;;4.65;;
52940;SDS011;62001;53.366;6.636;2023-05-10T13:56:59;4.80;;;4.38;;
52940;SDS011;62001;53.366;6.636;2023-05-10T13:59:25;4.65;;;4.22;;
52940;SDS011;62001;53.366;6.636;2023-05-10T14:01:51;5.35;;;4.85;;
52940;SDS011;62001;53.366;6.636;2023-05-10T14:04:17;7.93;;;5.93;;
52940;SDS011;62001;53.366;6.636;2023-05-10T14:06:43;7.07;;;6.28;;
52940;SDS011;62001;53.366;6.636;2023-05-10T14:09:09;6.65;;;5.63;;
52940;SDS011;62001;53.366;6.636;2023-05-10T14:11:34;6.82;;;5.68;;
52940;SDS011;62001;53.366;6.636;2023-05-10T14:14:00;7.68;;;5.80;;
52940;SDS011;62001;53.366;6.636;2023-05-10T14:16:26;19.15;;;15.65;;
52940;SDS011;62001;53.366;6.636;2023-05-10T14:18:52;17.25;;;14.13;;
52940;SDS011;62001;53.366;6.636;2023-05-10T14:21:18;15.30;;;13.00;;
52940;SDS011;62001;53.366;6.636;2023-05-10T14:23:44;17.58;;;13.93;;
52940;SDS011;62001;53.366;6.636;2023-05-10T14:26:10;14.32;;;12.68;;
52940;SDS011;62001;53.366;6.636;2023-05-10T14:28:36;14.85;;;12.90;;
52940;SDS011;62001;53.366;6.636;2023-05-10T14:31:01;15.63;;;13.70;;
52940;SDS011;62001;53.366;6.636;2023-05-10T14:33:27;16.05;;;14.35;;
52940;SDS011;62001;53.366;6.636;2023-05-10T14:35:53;17.05;;;13.68;;
52940;SDS011;62001;53.366;6.636;2023-05-10T14:38:21;16.98;;;14.50;;
52940;SDS011;62001;53.366;6.636;2023-05-10T14:40:47;15.57;;;13.52;;
52940;SDS011;62001;53.366;6.636;2023-05-10T14:43:13;16.35;;;13.23;;
52940;SDS011;62001;53.366;6.636;2023-05-10T14:45:39;15.40;;;13.25;;
52940;SDS011;62001;53.366;6.636;2023-05-10T14:48:04;16.80;;;13.45;;
52940;SDS011;62001;53.366;6.636;2023-05-10T14:50:31;15.07;;;12.93;;
52940;SDS011;62001;53.366;6.636;2023-05-10T14:52:57;12.13;;;10.85;;
52940;SDS011;62001;53.366;6.636;2023-05-10T14:55:24;11.68;;;10.00;;
52940;SDS011;62001;53.366;6.636;2023-05-10T14:57:50;13.18;;;9.75;;
52940;SDS011;62001;53.366;6.636;2023-05-10T15:00:15;9.98;;;8.30;;
52940;SDS011;62001;53.366;6.636;2023-05-10T15:02:44;9.27;;;8.07;;
52940;SDS011;62001;53.366;6.636;2023-05-10T15:05:10;7.65;;;6.55;;